Weather at Oakes Field-Nassau

Public forecast

Using degrees Celsius for public forecast. Weather courtesy of forecast.io.

Closest aviation weather report (METAR) to Oakes Field-Nassau

Closest report is Lynden Pindling International Airport, 6.2 nm (11.6 km) W.

2024/05/30 10:00 (retrieved 45 minutes ago)

MYNN 301000Z VRB02KT 9999 SCT020 24/23 A3000

Closest aviation forecast (TAF) to Oakes Field-Nassau

Closest forecast is Lynden Pindling International Airport, 6.2 nm (11.6 km) W.

2024/05/30 06:00 (retrieved 5 hours ago)

TAF MYNN 300557Z 3006/3106 VRB02KT 9999 FEW030 BECMG 3014/3016 02006KT SCT025